sensor_id;sensor_type;location;lat;lon;timestamp;P1;durP1;ratioP1;P2;durP2;ratioP2
20743;SDS011;56303;52.160;-0.428;2023-08-06T00:01:44;9.57;;;4.83;;
20743;SDS011;56303;52.160;-0.428;2023-08-06T00:04:11;8.90;;;4.50;;
20743;SDS011;56303;52.160;-0.428;2023-08-06T00:06:38;6.60;;;4.27;;
20743;SDS011;56303;52.160;-0.428;2023-08-06T00:09:05;11.53;;;6.00;;
20743;SDS011;56303;52.160;-0.428;2023-08-06T00:11:32;8.07;;;5.10;;
20743;SDS011;56303;52.160;-0.428;2023-08-06T00:13:59;8.77;;;5.40;;
20743;SDS011;56303;52.160;-0.428;2023-08-06T00:16:26;10.10;;;5.40;;
20743;SDS011;56303;52.160;-0.428;2023-08-06T00:18:55;10.37;;;5.93;;
20743;SDS011;56303;52.160;-0.428;2023-08-06T00:21:22;9.20;;;5.30;;
20743;SDS011;56303;52.160;-0.428;2023-08-06T00:23:49;12.90;;;6.40;;
20743;SDS011;56303;52.160;-0.428;2023-08-06T00:26:16;9.83;;;5.50;;
20743;SDS011;56303;52.160;-0.428;2023-08-06T00:28:43;11.57;;;6.10;;
20743;SDS011;56303;52.160;-0.428;2023-08-06T00:31:09;12.63;;;5.67;;
20743;SDS011;56303;52.160;-0.428;2023-08-06T00:33:36;10.77;;;5.20;;
20743;SDS011;56303;52.160;-0.428;2023-08-06T00:36:04;10.13;;;5.90;;
20743;SDS011;56303;52.160;-0.428;2023-08-06T00:38:31;9.87;;;5.90;;
20743;SDS011;56303;52.160;-0.428;2023-08-06T00:40:58;10.33;;;5.33;;
20743;SDS011;56303;52.160;-0.428;2023-08-06T00:43:24;7.33;;;5.17;;
20743;SDS011;56303;52.160;-0.428;2023-08-06T00:45:52;10.60;;;5.33;;
20743;SDS011;56303;52.160;-0.428;2023-08-06T00:48:19;8.30;;;5.37;;
20743;SDS011;56303;52.160;-0.428;2023-08-06T00:50:47;8.23;;;5.17;;
20743;SDS011;56303;52.160;-0.428;2023-08-06T00:53:14;8.23;;;5.20;;
20743;SDS011;56303;52.160;-0.428;2023-08-06T00:55:41;10.50;;;5.63;;
20743;SDS011;56303;52.160;-0.428;2023-08-06T00:58:11;11.27;;;5.37;;
20743;SDS011;56303;52.160;-0.428;2023-08-06T01:00:39;11.90;;;5.37;;
20743;SDS011;56303;52.160;-0.428;2023-08-06T01:03:06;9.43;;;5.50;;
20743;SDS011;56303;52.160;-0.428;2023-08-06T01:05:33;8.17;;;5.20;;
20743;SDS011;56303;52.160;-0.428;2023-08-06T01:16:07;8.40;;;4.80;;
20743;SDS011;56303;52.160;-0.428;2023-08-06T01:18:35;6.53;;;4.30;;
20743;SDS011;56303;52.160;-0.428;2023-08-06T01:21:03;7.70;;;4.80;;
20743;SDS011;56303;52.160;-0.428;2023-08-06T01:23:30;8.47;;;4.77;;
20743;SDS011;56303;52.160;-0.428;2023-08-06T01:26:03;12.40;;;5.80;;
20743;SDS011;56303;52.160;-0.428;2023-08-06T01:28:48;9.63;;;4.57;;
20743;SDS011;56303;52.160;-0.428;2023-08-06T01:31:26;9.77;;;5.40;;
20743;SDS011;56303;52.160;-0.428;2023-08-06T01:33:57;10.23;;;5.03;;
20743;SDS011;56303;52.160;-0.428;2023-08-06T01:36:25;9.13;;;5.00;;
20743;SDS011;56303;52.160;-0.428;2023-08-06T01:38:54;9.17;;;5.00;;
20743;SDS011;56303;52.160;-0.428;2023-08-06T01:41:21;11.40;;;5.40;;
20743;SDS011;56303;52.160;-0.428;2023-08-06T01:43:48;10.27;;;5.13;;
20743;SDS011;56303;52.160;-0.428;2023-08-06T01:46:15;10.00;;;5.07;;
20743;SDS011;56303;52.160;-0.428;2023-08-06T01:48:42;6.37;;;4.77;;
20743;SDS011;56303;52.160;-0.428;2023-08-06T01:51:09;8.67;;;5.00;;
20743;SDS011;56303;52.160;-0.428;2023-08-06T01:53:36;11.10;;;4.80;;
20743;SDS011;56303;52.160;-0.428;2023-08-06T01:56:03;8.70;;;5.50;;
20743;SDS011;56303;52.160;-0.428;2023-08-06T01:58:30;7.23;;;4.73;;
20743;SDS011;56303;52.160;-0.428;2023-08-06T02:00:57;7.67;;;4.63;;
20743;SDS011;56303;52.160;-0.428;2023-08-06T02:03:23;7.47;;;4.83;;
20743;SDS011;56303;52.160;-0.428;2023-08-06T02:05:50;8.17;;;4.87;;
20743;SDS011;56303;52.160;-0.428;2023-08-06T02:08:20;9.73;;;5.83;;
20743;SDS011;56303;52.160;-0.428;2023-08-06T02:10:47;8.47;;;4.90;;
20743;SDS011;56303;52.160;-0.428;2023-08-06T02:13:14;11.70;;;5.03;;
20743;SDS011;56303;52.160;-0.428;2023-08-06T02:15:45;9.80;;;4.67;;
20743;SDS011;56303;52.160;-0.428;2023-08-06T02:18:14;13.83;;;4.67;;
20743;SDS011;56303;52.160;-0.428;2023-08-06T02:20:41;7.73;;;4.80;;
20743;SDS011;56303;52.160;-0.428;2023-08-06T02:23:09;9.30;;;4.63;;
20743;SDS011;56303;52.160;-0.428;2023-08-06T02:25:36;6.57;;;4.53;;
20743;SDS011;56303;52.160;-0.428;2023-08-06T02:28:03;8.50;;;4.87;;
20743;SDS011;56303;52.160;-0.428;2023-08-06T02:30:30;9.37;;;4.83;;
20743;SDS011;56303;52.160;-0.428;2023-08-06T02:32:57;6.83;;;4.40;;
20743;SDS011;56303;52.160;-0.428;2023-08-06T02:35:24;7.37;;;4.33;;
20743;SDS011;56303;52.160;-0.428;2023-08-06T02:37:51;7.10;;;4.77;;
20743;SDS011;56303;52.160;-0.428;2023-08-06T02:40:18;6.93;;;4.30;;
20743;SDS011;56303;52.160;-0.428;2023-08-06T02:42:46;8.60;;;5.13;;
20743;SDS011;56303;52.160;-0.428;2023-08-06T02:45:13;7.27;;;5.10;;
20743;SDS011;56303;52.160;-0.428;2023-08-06T02:47:40;12.67;;;5.47;;
20743;SDS011;56303;52.160;-0.428;2023-08-06T02:50:07;7.20;;;4.07;;
20743;SDS011;56303;52.160;-0.428;2023-08-06T02:52:34;8.77;;;4.47;;
20743;SDS011;56303;52.160;-0.428;2023-08-06T02:55:00;10.07;;;4.63;;
20743;SDS011;56303;52.160;-0.428;2023-08-06T02:57:28;8.70;;;4.43;;
20743;SDS011;56303;52.160;-0.428;2023-08-06T02:59:55;6.07;;;4.23;;
20743;SDS011;56303;52.160;-0.428;2023-08-06T03:02:21;6.43;;;4.57;;
20743;SDS011;56303;52.160;-0.428;2023-08-06T03:04:48;8.57;;;4.73;;
20743;SDS011;56303;52.160;-0.428;2023-08-06T03:07:15;7.27;;;4.20;;
20743;SDS011;56303;52.160;-0.428;2023-08-06T03:09:42;7.13;;;4.63;;
20743;SDS011;56303;52.160;-0.428;2023-08-06T03:12:09;8.03;;;4.80;;
20743;SDS011;56303;52.160;-0.428;2023-08-06T03:14:36;6.53;;;4.60;;
20743;SDS011;56303;52.160;-0.428;2023-08-06T03:17:02;6.70;;;4.50;;
20743;SDS011;56303;52.160;-0.428;2023-08-06T03:19:29;9.33;;;5.07;;
20743;SDS011;56303;52.160;-0.428;2023-08-06T03:21:56;6.87;;;4.57;;
20743;SDS011;56303;52.160;-0.428;2023-08-06T03:24:23;6.33;;;4.50;;
20743;SDS011;56303;52.160;-0.428;2023-08-06T03:26:50;7.93;;;5.00;;
20743;SDS011;56303;52.160;-0.428;2023-08-06T03:29:17;7.03;;;4.83;;
20743;SDS011;56303;52.160;-0.428;2023-08-06T03:31:44;7.17;;;4.50;;
20743;SDS011;56303;52.160;-0.428;2023-08-06T03:34:11;8.67;;;4.20;;
20743;SDS011;56303;52.160;-0.428;2023-08-06T03:36:38;8.30;;;4.40;;
20743;SDS011;56303;52.160;-0.428;2023-08-06T03:39:05;7.07;;;4.73;;
20743;SDS011;56303;52.160;-0.428;2023-08-06T03:41:32;7.90;;;4.63;;
20743;SDS011;56303;52.160;-0.428;2023-08-06T03:43:59;6.77;;;4.63;;
20743;SDS011;56303;52.160;-0.428;2023-08-06T03:46:29;7.17;;;4.40;;
20743;SDS011;56303;52.160;-0.428;2023-08-06T03:49:00;6.97;;;4.83;;
20743;SDS011;56303;52.160;-0.428;2023-08-06T03:51:27;7.17;;;5.03;;
20743;SDS011;56303;52.160;-0.428;2023-08-06T03:53:54;8.67;;;4.57;;
20743;SDS011;56303;52.160;-0.428;2023-08-06T03:56:21;7.00;;;4.23;;
20743;SDS011;56303;52.160;-0.428;2023-08-06T03:58:48;7.63;;;4.33;;
20743;SDS011;56303;52.160;-0.428;2023-08-06T04:01:15;9.67;;;4.80;;
20743;SDS011;56303;52.160;-0.428;2023-08-06T04:03:41;5.93;;;4.07;;
20743;SDS011;56303;52.160;-0.428;2023-08-06T04:06:08;7.17;;;4.53;;
20743;SDS011;56303;52.160;-0.428;2023-08-06T04:08:35;7.03;;;4.37;;
20743;SDS011;56303;52.160;-0.428;2023-08-06T04:11:03;8.13;;;3.60;;
20743;SDS011;56303;52.160;-0.428;2023-08-06T04:13:30;7.43;;;4.60;;
20743;SDS011;56303;52.160;-0.428;2023-08-06T04:16:00;6.73;;;3.70;;
20743;SDS011;56303;52.160;-0.428;2023-08-06T04:18:28;8.00;;;4.40;;
20743;SDS011;56303;52.160;-0.428;2023-08-06T04:20:56;8.53;;;4.33;;
20743;SDS011;56303;52.160;-0.428;2023-08-06T04:23:23;8.60;;;4.73;;
20743;SDS011;56303;52.160;-0.428;2023-08-06T04:25:50;10.10;;;4.33;;
20743;SDS011;56303;52.160;-0.428;2023-08-06T04:28:17;10.03;;;4.33;;
20743;SDS011;56303;52.160;-0.428;2023-08-06T04:30:45;5.93;;;3.63;;
20743;SDS011;56303;52.160;-0.428;2023-08-06T04:33:12;5.60;;;3.63;;
20743;SDS011;56303;52.160;-0.428;2023-08-06T04:35:39;10.13;;;4.73;;
20743;SDS011;56303;52.160;-0.428;2023-08-06T04:38:06;6.63;;;4.20;;
20743;SDS011;56303;52.160;-0.428;2023-08-06T04:40:33;6.80;;;4.40;;
20743;SDS011;56303;52.160;-0.428;2023-08-06T04:43:01;10.30;;;5.00;;
20743;SDS011;56303;52.160;-0.428;2023-08-06T04:45:28;6.20;;;4.03;;
20743;SDS011;56303;52.160;-0.428;2023-08-06T04:47:55;8.17;;;4.00;;
20743;SDS011;56303;52.160;-0.428;2023-08-06T04:50:22;6.97;;;4.40;;
20743;SDS011;56303;52.160;-0.428;2023-08-06T04:52:49;7.87;;;4.63;;
20743;SDS011;56303;52.160;-0.428;2023-08-06T04:55:15;7.30;;;4.63;;
20743;SDS011;56303;52.160;-0.428;2023-08-06T04:57:42;6.83;;;4.80;;
20743;SDS011;56303;52.160;-0.428;2023-08-06T05:00:09;8.97;;;4.20;;
20743;SDS011;56303;52.160;-0.428;2023-08-06T05:02:36;7.33;;;4.93;;
20743;SDS011;56303;52.160;-0.428;2023-08-06T05:05:05;6.80;;;4.80;;
20743;SDS011;56303;52.160;-0.428;2023-08-06T05:07:32;8.13;;;4.67;;
20743;SDS011;56303;52.160;-0.428;2023-08-06T05:09:58;8.17;;;5.13;;
20743;SDS011;56303;52.160;-0.428;2023-08-06T05:12:25;9.57;;;5.00;;
20743;SDS011;56303;52.160;-0.428;2023-08-06T05:14:52;8.57;;;5.43;;
20743;SDS011;56303;52.160;-0.428;2023-08-06T05:17:19;7.90;;;5.60;;
20743;SDS011;56303;52.160;-0.428;2023-08-06T05:19:46;7.10;;;4.80;;
20743;SDS011;56303;52.160;-0.428;2023-08-06T05:22:13;9.17;;;5.17;;
20743;SDS011;56303;52.160;-0.428;2023-08-06T05:24:40;9.33;;;4.97;;
20743;SDS011;56303;52.160;-0.428;2023-08-06T05:27:06;7.40;;;5.23;;
20743;SDS011;56303;52.160;-0.428;2023-08-06T05:29:33;6.30;;;4.80;;
20743;SDS011;56303;52.160;-0.428;2023-08-06T05:32:00;8.40;;;5.20;;
20743;SDS011;56303;52.160;-0.428;2023-08-06T05:34:27;8.80;;;4.77;;
20743;SDS011;56303;52.160;-0.428;2023-08-06T05:36:55;8.30;;;5.33;;
20743;SDS011;56303;52.160;-0.428;2023-08-06T05:39:22;13.07;;;6.10;;
20743;SDS011;56303;52.160;-0.428;2023-08-06T05:41:48;7.57;;;5.30;;
20743;SDS011;56303;52.160;-0.428;2023-08-06T05:44:17;8.07;;;4.60;;
20743;SDS011;56303;52.160;-0.428;2023-08-06T05:46:44;9.17;;;5.70;;
20743;SDS011;56303;52.160;-0.428;2023-08-06T05:49:11;9.53;;;5.93;;
20743;SDS011;56303;52.160;-0.428;2023-08-06T05:51:40;7.27;;;4.87;;
20743;SDS011;56303;52.160;-0.428;2023-08-06T05:54:07;11.30;;;5.03;;
20743;SDS011;56303;52.160;-0.428;2023-08-06T05:56:34;8.27;;;4.73;;
20743;SDS011;56303;52.160;-0.428;2023-08-06T05:59:01;10.53;;;4.93;;
20743;SDS011;56303;52.160;-0.428;2023-08-06T06:01:28;8.33;;;4.83;;
20743;SDS011;56303;52.160;-0.428;2023-08-06T06:03:55;7.00;;;4.70;;
20743;SDS011;56303;52.160;-0.428;2023-08-06T06:06:22;7.33;;;5.13;;
20743;SDS011;56303;52.160;-0.428;2023-08-06T06:08:48;8.27;;;4.67;;
20743;SDS011;56303;52.160;-0.428;2023-08-06T06:11:15;8.83;;;4.80;;
20743;SDS011;56303;52.160;-0.428;2023-08-06T06:13:42;6.50;;;4.23;;
20743;SDS011;56303;52.160;-0.428;2023-08-06T06:16:09;8.50;;;4.67;;
20743;SDS011;56303;52.160;-0.428;2023-08-06T06:18:36;7.33;;;4.60;;
20743;SDS011;56303;52.160;-0.428;2023-08-06T06:21:03;8.47;;;5.17;;
20743;SDS011;56303;52.160;-0.428;2023-08-06T06:23:31;7.47;;;5.10;;
20743;SDS011;56303;52.160;-0.428;2023-08-06T06:25:59;7.77;;;4.30;;
20743;SDS011;56303;52.160;-0.428;2023-08-06T06:28:26;7.80;;;4.53;;
20743;SDS011;56303;52.160;-0.428;2023-08-06T06:30:53;6.50;;;4.60;;
20743;SDS011;56303;52.160;-0.428;2023-08-06T06:33:19;8.07;;;5.17;;
20743;SDS011;56303;52.160;-0.428;2023-08-06T06:35:46;10.10;;;4.93;;
20743;SDS011;56303;52.160;-0.428;2023-08-06T06:38:13;8.13;;;5.17;;
20743;SDS011;56303;52.160;-0.428;2023-08-06T06:40:40;5.67;;;4.53;;
20743;SDS011;56303;52.160;-0.428;2023-08-06T06:43:07;9.30;;;5.40;;
20743;SDS011;56303;52.160;-0.428;2023-08-06T06:45:34;7.17;;;4.47;;
20743;SDS011;56303;52.160;-0.428;2023-08-06T06:48:01;7.73;;;4.57;;
20743;SDS011;56303;52.160;-0.428;2023-08-06T06:50:28;10.90;;;4.30;;
20743;SDS011;56303;52.160;-0.428;2023-08-06T06:52:54;9.83;;;4.47;;
20743;SDS011;56303;52.160;-0.428;2023-08-06T06:55:21;6.33;;;4.07;;
20743;SDS011;56303;52.160;-0.428;2023-08-06T06:57:48;8.13;;;4.27;;
20743;SDS011;56303;52.160;-0.428;2023-08-06T07:00:15;5.93;;;3.60;;
20743;SDS011;56303;52.160;-0.428;2023-08-06T07:02:42;7.10;;;3.77;;
20743;SDS011;56303;52.160;-0.428;2023-08-06T07:05:09;6.57;;;4.00;;
20743;SDS011;56303;52.160;-0.428;2023-08-06T07:07:36;7.27;;;4.40;;
20743;SDS011;56303;52.160;-0.428;2023-08-06T07:10:03;5.03;;;3.67;;
20743;SDS011;56303;52.160;-0.428;2023-08-06T07:12:32;6.87;;;3.80;;
20743;SDS011;56303;52.160;-0.428;2023-08-06T07:14:58;6.60;;;3.90;;
20743;SDS011;56303;52.160;-0.428;2023-08-06T07:17:25;8.50;;;4.13;;
20743;SDS011;56303;52.160;-0.428;2023-08-06T07:19:52;6.30;;;3.87;;
20743;SDS011;56303;52.160;-0.428;2023-08-06T07:22:19;6.97;;;3.13;;
20743;SDS011;56303;52.160;-0.428;2023-08-06T07:24:46;6.13;;;3.33;;
20743;SDS011;56303;52.160;-0.428;2023-08-06T07:27:13;5.87;;;3.30;;
20743;SDS011;56303;52.160;-0.428;2023-08-06T07:29:40;6.20;;;3.63;;
20743;SDS011;56303;52.160;-0.428;2023-08-06T07:32:07;5.13;;;3.37;;
20743;SDS011;56303;52.160;-0.428;2023-08-06T07:34:34;6.37;;;2.90;;
20743;SDS011;56303;52.160;-0.428;2023-08-06T07:37:01;5.07;;;3.37;;
20743;SDS011;56303;52.160;-0.428;2023-08-06T07:39:28;5.87;;;3.17;;
20743;SDS011;56303;52.160;-0.428;2023-08-06T07:41:54;5.20;;;3.10;;
20743;SDS011;56303;52.160;-0.428;2023-08-06T07:44:21;6.73;;;3.40;;
20743;SDS011;56303;52.160;-0.428;2023-08-06T07:46:48;3.97;;;2.33;;
20743;SDS011;56303;52.160;-0.428;2023-08-06T07:49:15;4.17;;;2.47;;
20743;SDS011;56303;52.160;-0.428;2023-08-06T07:51:42;6.30;;;2.80;;
20743;SDS011;56303;52.160;-0.428;2023-08-06T07:54:09;5.40;;;3.00;;
20743;SDS011;56303;52.160;-0.428;2023-08-06T07:56:36;4.40;;;2.50;;
20743;SDS011;56303;52.160;-0.428;2023-08-06T07:59:03;4.63;;;3.00;;
20743;SDS011;56303;52.160;-0.428;2023-08-06T08:01:30;4.97;;;2.90;;
20743;SDS011;56303;52.160;-0.428;2023-08-06T08:03:57;4.13;;;2.83;;
20743;SDS011;56303;52.160;-0.428;2023-08-06T08:06:24;3.47;;;2.60;;
20743;SDS011;56303;52.160;-0.428;2023-08-06T08:08:50;3.50;;;2.50;;
20743;SDS011;56303;52.160;-0.428;2023-08-06T08:11:18;3.10;;;2.30;;
20743;SDS011;56303;52.160;-0.428;2023-08-06T08:13:44;4.73;;;2.60;;
20743;SDS011;56303;52.160;-0.428;2023-08-06T08:16:11;4.43;;;2.70;;
20743;SDS011;56303;52.160;-0.428;2023-08-06T08:18:38;3.30;;;2.50;;
20743;SDS011;56303;52.160;-0.428;2023-08-06T08:21:05;4.43;;;2.57;;
20743;SDS011;56303;52.160;-0.428;2023-08-06T08:23:32;6.47;;;2.50;;
20743;SDS011;56303;52.160;-0.428;2023-08-06T08:25:59;5.53;;;2.27;;
20743;SDS011;56303;52.160;-0.428;2023-08-06T08:28:28;3.97;;;2.33;;
20743;SDS011;56303;52.160;-0.428;2023-08-06T08:30:55;3.70;;;2.30;;
20743;SDS011;56303;52.160;-0.428;2023-08-06T08:33:23;6.03;;;1.90;;
20743;SDS011;56303;52.160;-0.428;2023-08-06T08:35:53;5.73;;;2.30;;
20743;SDS011;56303;52.160;-0.428;2023-08-06T08:38:19;5.57;;;2.57;;
20743;SDS011;56303;52.160;-0.428;2023-08-06T08:40:46;2.93;;;1.90;;
20743;SDS011;56303;52.160;-0.428;2023-08-06T08:43:19;5.40;;;2.50;;
20743;SDS011;56303;52.160;-0.428;2023-08-06T08:45:51;4.27;;;2.97;;
20743;SDS011;56303;52.160;-0.428;2023-08-06T08:48:18;4.13;;;2.33;;
20743;SDS011;56303;52.160;-0.428;2023-08-06T08:50:46;3.57;;;2.00;;
20743;SDS011;56303;52.160;-0.428;2023-08-06T08:53:17;2.70;;;2.10;;
20743;SDS011;56303;52.160;-0.428;2023-08-06T08:55:46;2.73;;;2.37;;
20743;SDS011;56303;52.160;-0.428;2023-08-06T08:58:14;4.33;;;2.17;;
20743;SDS011;56303;52.160;-0.428;2023-08-06T09:00:42;2.73;;;2.07;;
20743;SDS011;56303;52.160;-0.428;2023-08-06T09:03:09;4.07;;;2.07;;
20743;SDS011;56303;52.160;-0.428;2023-08-06T09:05:36;5.37;;;2.47;;
20743;SDS011;56303;52.160;-0.428;2023-08-06T09:08:11;5.70;;;2.50;;
20743;SDS011;56303;52.160;-0.428;2023-08-06T09:10:48;4.53;;;2.40;;
20743;SDS011;56303;52.160;-0.428;2023-08-06T09:13:16;4.13;;;1.93;;
20743;SDS011;56303;52.160;-0.428;2023-08-06T09:15:43;3.63;;;2.17;;
20743;SDS011;56303;52.160;-0.428;2023-08-06T09:18:11;5.10;;;2.50;;
20743;SDS011;56303;52.160;-0.428;2023-08-06T09:20:38;2.93;;;2.37;;
20743;SDS011;56303;52.160;-0.428;2023-08-06T09:23:09;2.43;;;2.07;;
20743;SDS011;56303;52.160;-0.428;2023-08-06T09:25:39;4.30;;;2.07;;
20743;SDS011;56303;52.160;-0.428;2023-08-06T09:28:07;3.73;;;2.47;;
20743;SDS011;56303;52.160;-0.428;2023-08-06T09:30:35;2.20;;;1.90;;
20743;SDS011;56303;52.160;-0.428;2023-08-06T09:33:03;3.40;;;1.97;;
20743;SDS011;56303;52.160;-0.428;2023-08-06T09:35:36;2.70;;;1.97;;
20743;SDS011;56303;52.160;-0.428;2023-08-06T09:38:07;2.57;;;1.90;;
20743;SDS011;56303;52.160;-0.428;2023-08-06T09:40:37;4.93;;;1.87;;
20743;SDS011;56303;52.160;-0.428;2023-08-06T09:43:05;5.73;;;2.43;;
20743;SDS011;56303;52.160;-0.428;2023-08-06T09:45:33;2.20;;;1.90;;
20743;SDS011;56303;52.160;-0.428;2023-08-06T09:48:05;3.67;;;2.37;;
20743;SDS011;56303;52.160;-0.428;2023-08-06T09:50:33;5.23;;;2.30;;
20743;SDS011;56303;52.160;-0.428;2023-08-06T09:53:06;2.40;;;1.90;;
20743;SDS011;56303;52.160;-0.428;2023-08-06T09:55:35;4.27;;;2.40;;
20743;SDS011;56303;52.160;-0.428;2023-08-06T09:58:02;2.57;;;2.00;;
20743;SDS011;56303;52.160;-0.428;2023-08-06T10:00:29;3.00;;;2.07;;
20743;SDS011;56303;52.160;-0.428;2023-08-06T10:03:02;3.03;;;2.33;;
20743;SDS011;56303;52.160;-0.428;2023-08-06T10:05:29;3.27;;;2.00;;
20743;SDS011;56303;52.160;-0.428;2023-08-06T10:07:59;3.03;;;2.07;;
20743;SDS011;56303;52.160;-0.428;2023-08-06T10:10:28;2.80;;;2.10;;
20743;SDS011;56303;52.160;-0.428;2023-08-06T10:12:55;3.83;;;2.40;;
20743;SDS011;56303;52.160;-0.428;2023-08-06T10:15:25;3.93;;;2.27;;
20743;SDS011;56303;52.160;-0.428;2023-08-06T10:17:55;3.40;;;2.10;;
20743;SDS011;56303;52.160;-0.428;2023-08-06T10:20:24;3.43;;;2.40;;
20743;SDS011;56303;52.160;-0.428;2023-08-06T10:23:01;3.80;;;2.60;;
20743;SDS011;56303;52.160;-0.428;2023-08-06T10:25:31;3.10;;;2.07;;
20743;SDS011;56303;52.160;-0.428;2023-08-06T10:28:00;3.87;;;2.43;;
20743;SDS011;56303;52.160;-0.428;2023-08-06T10:30:33;2.53;;;2.00;;
20743;SDS011;56303;52.160;-0.428;2023-08-06T10:33:01;2.60;;;2.00;;
20743;SDS011;56303;52.160;-0.428;2023-08-06T10:38:09;4.10;;;2.37;;
20743;SDS011;56303;52.160;-0.428;2023-08-06T10:40:43;3.47;;;2.00;;
20743;SDS011;56303;52.160;-0.428;2023-08-06T10:43:31;2.50;;;1.93;;
20743;SDS011;56303;52.160;-0.428;2023-08-06T10:46:02;3.83;;;2.50;;
20743;SDS011;56303;52.160;-0.428;2023-08-06T10:48:31;2.67;;;2.27;;
20743;SDS011;56303;52.160;-0.428;2023-08-06T10:51:00;2.53;;;2.07;;
20743;SDS011;56303;52.160;-0.428;2023-08-06T10:53:28;2.63;;;1.90;;
20743;SDS011;56303;52.160;-0.428;2023-08-06T10:55:59;6.20;;;2.10;;
20743;SDS011;56303;52.160;-0.428;2023-08-06T10:58:31;3.17;;;2.30;;
20743;SDS011;56303;52.160;-0.428;2023-08-06T11:00:59;8.77;;;2.80;;
20743;SDS011;56303;52.160;-0.428;2023-08-06T11:03:26;3.50;;;2.50;;
20743;SDS011;56303;52.160;-0.428;2023-08-06T11:05:54;4.30;;;2.40;;
20743;SDS011;56303;52.160;-0.428;2023-08-06T11:08:27;3.57;;;2.00;;
20743;SDS011;56303;52.160;-0.428;2023-08-06T11:11:09;2.20;;;1.97;;
20743;SDS011;56303;52.160;-0.428;2023-08-06T11:13:45;3.63;;;1.70;;
20743;SDS011;56303;52.160;-0.428;2023-08-06T11:16:24;3.03;;;2.20;;
20743;SDS011;56303;52.160;-0.428;2023-08-06T11:18:53;3.73;;;2.17;;
20743;SDS011;56303;52.160;-0.428;2023-08-06T11:21:21;3.37;;;2.20;;
20743;SDS011;56303;52.160;-0.428;2023-08-06T11:23:48;3.93;;;2.33;;
20743;SDS011;56303;52.160;-0.428;2023-08-06T11:26:18;3.47;;;2.33;;
20743;SDS011;56303;52.160;-0.428;2023-08-06T11:28:46;3.67;;;2.20;;
20743;SDS011;56303;52.160;-0.428;2023-08-06T11:31:22;2.90;;;1.80;;
20743;SDS011;56303;52.160;-0.428;2023-08-06T11:33:53;3.97;;;2.00;;
20743;SDS011;56303;52.160;-0.428;2023-08-06T11:36:34;2.07;;;1.87;;
20743;SDS011;56303;52.160;-0.428;2023-08-06T11:39:06;4.20;;;2.30;;
20743;SDS011;56303;52.160;-0.428;2023-08-06T11:41:33;3.10;;;2.07;;
20743;SDS011;56303;52.160;-0.428;2023-08-06T11:44:02;4.07;;;2.20;;
20743;SDS011;56303;52.160;-0.428;2023-08-06T11:46:29;2.80;;;2.13;;
20743;SDS011;56303;52.160;-0.428;2023-08-06T11:49:16;2.10;;;1.90;;
20743;SDS011;56303;52.160;-0.428;2023-08-06T11:51:45;3.03;;;2.00;;
20743;SDS011;56303;52.160;-0.428;2023-08-06T11:54:11;2.73;;;1.73;;
20743;SDS011;56303;52.160;-0.428;2023-08-06T11:56:38;3.20;;;2.40;;
20743;SDS011;56303;52.160;-0.428;2023-08-06T11:59:05;3.23;;;2.10;;
20743;SDS011;56303;52.160;-0.428;2023-08-06T12:01:32;1.63;;;1.53;;
20743;SDS011;56303;52.160;-0.428;2023-08-06T12:03:59;3.43;;;1.80;;
20743;SDS011;56303;52.160;-0.428;2023-08-06T12:06:27;14.20;;;1.93;;
20743;SDS011;56303;52.160;-0.428;2023-08-06T12:08:54;2.27;;;1.97;;
20743;SDS011;56303;52.160;-0.428;2023-08-06T12:11:21;2.90;;;2.03;;
20743;SDS011;56303;52.160;-0.428;2023-08-06T12:13:52;3.77;;;1.90;;
20743;SDS011;56303;52.160;-0.428;2023-08-06T12:16:20;1.80;;;1.70;;
20743;SDS011;56303;52.160;-0.428;2023-08-06T12:18:48;4.00;;;1.70;;
20743;SDS011;56303;52.160;-0.428;2023-08-06T12:21:15;2.73;;;1.80;;
20743;SDS011;56303;52.160;-0.428;2023-08-06T12:23:42;6.43;;;3.27;;
20743;SDS011;56303;52.160;-0.428;2023-08-06T12:26:09;5.30;;;2.60;;
20743;SDS011;56303;52.160;-0.428;2023-08-06T12:28:36;3.90;;;2.70;;
20743;SDS011;56303;52.160;-0.428;2023-08-06T12:31:03;5.57;;;2.70;;
20743;SDS011;56303;52.160;-0.428;2023-08-06T12:33:30;3.40;;;2.43;;
20743;SDS011;56303;52.160;-0.428;2023-08-06T12:35:56;5.03;;;3.10;;
20743;SDS011;56303;52.160;-0.428;2023-08-06T12:38:24;3.87;;;2.70;;
20743;SDS011;56303;52.160;-0.428;2023-08-06T12:40:50;3.63;;;2.67;;
20743;SDS011;56303;52.160;-0.428;2023-08-06T12:43:18;3.77;;;2.43;;
20743;SDS011;56303;52.160;-0.428;2023-08-06T12:45:45;3.07;;;2.33;;
20743;SDS011;56303;52.160;-0.428;2023-08-06T12:48:12;4.00;;;2.60;;
20743;SDS011;56303;52.160;-0.428;2023-08-06T12:50:39;3.13;;;2.43;;
20743;SDS011;56303;52.160;-0.428;2023-08-06T12:53:06;4.17;;;2.70;;
20743;SDS011;56303;52.160;-0.428;2023-08-06T12:55:33;3.77;;;2.50;;
20743;SDS011;56303;52.160;-0.428;2023-08-06T12:58:00;3.83;;;2.43;;
20743;SDS011;56303;52.160;-0.428;2023-08-06T13:00:27;3.70;;;2.10;;
20743;SDS011;56303;52.160;-0.428;2023-08-06T13:02:54;2.43;;;2.10;;
20743;SDS011;56303;52.160;-0.428;2023-08-06T13:05:21;3.43;;;2.57;;
20743;SDS011;56303;52.160;-0.428;2023-08-06T13:07:48;4.47;;;2.50;;
20743;SDS011;56303;52.160;-0.428;2023-08-06T13:10:15;2.83;;;2.30;;
20743;SDS011;56303;52.160;-0.428;2023-08-06T13:12:41;4.23;;;2.00;;
20743;SDS011;56303;52.160;-0.428;2023-08-06T13:15:09;3.57;;;2.50;;
20743;SDS011;56303;52.160;-0.428;2023-08-06T13:17:36;3.20;;;2.30;;
20743;SDS011;56303;52.160;-0.428;2023-08-06T13:20:03;4.00;;;2.13;;
20743;SDS011;56303;52.160;-0.428;2023-08-06T13:22:30;2.73;;;2.23;;
20743;SDS011;56303;52.160;-0.428;2023-08-06T13:24:57;3.30;;;2.10;;
20743;SDS011;56303;52.160;-0.428;2023-08-06T13:27:24;2.90;;;1.90;;
20743;SDS011;56303;52.160;-0.428;2023-08-06T13:29:50;4.00;;;2.10;;
20743;SDS011;56303;52.160;-0.428;2023-08-06T13:32:17;2.77;;;2.27;;
20743;SDS011;56303;52.160;-0.428;2023-08-06T13:34:44;3.60;;;2.10;;
20743;SDS011;56303;52.160;-0.428;2023-08-06T13:37:11;3.03;;;2.27;;
20743;SDS011;56303;52.160;-0.428;2023-08-06T13:39:38;3.37;;;2.00;;
20743;SDS011;56303;52.160;-0.428;2023-08-06T13:42:05;2.73;;;1.93;;
20743;SDS011;56303;52.160;-0.428;2023-08-06T13:44:31;3.17;;;1.87;;
20743;SDS011;56303;52.160;-0.428;2023-08-06T13:47:02;3.80;;;2.10;;
20743;SDS011;56303;52.160;-0.428;2023-08-06T13:49:29;2.30;;;1.80;;
20743;SDS011;56303;52.160;-0.428;2023-08-06T13:51:55;2.70;;;2.13;;
20743;SDS011;56303;52.160;-0.428;2023-08-06T13:54:41;2.53;;;2.07;;
20743;SDS011;56303;52.160;-0.428;2023-08-06T13:57:08;2.43;;;1.70;;
20743;SDS011;56303;52.160;-0.428;2023-08-06T13:59:34;2.47;;;1.77;;
20743;SDS011;56303;52.160;-0.428;2023-08-06T14:02:01;2.40;;;1.90;;
20743;SDS011;56303;52.160;-0.428;2023-08-06T14:04:29;2.77;;;2.00;;
20743;SDS011;56303;52.160;-0.428;2023-08-06T14:06:56;3.20;;;2.00;;
20743;SDS011;56303;52.160;-0.428;2023-08-06T14:09:22;2.40;;;1.77;;
20743;SDS011;56303;52.160;-0.428;2023-08-06T14:11:50;2.03;;;1.60;;
20743;SDS011;56303;52.160;-0.428;2023-08-06T14:14:17;2.67;;;1.90;;
20743;SDS011;56303;52.160;-0.428;2023-08-06T14:16:43;2.40;;;1.90;;
20743;SDS011;56303;52.160;-0.428;2023-08-06T14:19:10;4.57;;;1.83;;
20743;SDS011;56303;52.160;-0.428;2023-08-06T14:21:37;4.00;;;2.10;;
20743;SDS011;56303;52.160;-0.428;2023-08-06T14:24:04;2.63;;;1.93;;
20743;SDS011;56303;52.160;-0.428;2023-08-06T14:26:31;2.83;;;1.70;;
20743;SDS011;56303;52.160;-0.428;2023-08-06T14:28:57;2.37;;;1.90;;
20743;SDS011;56303;52.160;-0.428;2023-08-06T14:31:24;3.30;;;2.03;;
20743;SDS011;56303;52.160;-0.428;2023-08-06T14:33:51;2.10;;;1.57;;
20743;SDS011;56303;52.160;-0.428;2023-08-06T14:36:18;2.03;;;1.80;;
20743;SDS011;56303;52.160;-0.428;2023-08-06T14:38:45;1.83;;;1.47;;
20743;SDS011;56303;52.160;-0.428;2023-08-06T14:41:25;4.37;;;2.30;;
20743;SDS011;56303;52.160;-0.428;2023-08-06T14:43:52;1.97;;;1.80;;
20743;SDS011;56303;52.160;-0.428;2023-08-06T14:46:20;1.83;;;1.53;;
20743;SDS011;56303;52.160;-0.428;2023-08-06T14:48:47;2.10;;;1.90;;